sensor_id;sensor_type;location;lat;lon;timestamp;temperature;humidity
29813;DHT22;16707;48.106;11.548;2023-04-01T00:01:13;8.00;99.90
29813;DHT22;16707;48.106;11.548;2023-04-01T00:03:46;7.90;99.90
29813;DHT22;16707;48.106;11.548;2023-04-01T00:06:37;7.90;99.90
29813;DHT22;16707;48.106;11.548;2023-04-01T00:09:11;7.90;99.90
29813;DHT22;16707;48.106;11.548;2023-04-01T00:11:38;7.80;99.90
29813;DHT22;16707;48.106;11.548;2023-04-01T00:14:18;7.80;99.90
29813;DHT22;16707;48.106;11.548;2023-04-01T00:16:48;7.80;99.90
29813;DHT22;16707;48.106;11.548;2023-04-01T00:19:15;7.80;99.90
29813;DHT22;16707;48.106;11.548;2023-04-01T00:21:53;7.80;99.90
29813;DHT22;16707;48.106;11.548;2023-04-01T00:24:24;7.80;99.90
29813;DHT22;16707;48.106;11.548;2023-04-01T00:26:51;7.80;99.90
29813;DHT22;16707;48.106;11.548;2023-04-01T00:29:18;7.80;99.90
29813;DHT22;16707;48.106;11.548;2023-04-01T00:31:58;7.70;99.90
29813;DHT22;16707;48.106;11.548;2023-04-01T00:34:30;7.70;99.90
29813;DHT22;16707;48.106;11.548;2023-04-01T00:37:02;7.60;99.90
29813;DHT22;16707;48.106;11.548;2023-04-01T00:39:42;7.50;99.90
29813;DHT22;16707;48.106;11.548;2023-04-01T00:42:10;7.50;99.90
29813;DHT22;16707;48.106;11.548;2023-04-01T00:44:41;7.50;99.90
29813;DHT22;16707;48.106;11.548;2023-04-01T00:47:09;7.50;99.90
29813;DHT22;16707;48.106;11.548;2023-04-01T00:49:41;7.50;99.90
29813;DHT22;16707;48.106;11.548;2023-04-01T00:52:23;7.40;99.90
29813;DHT22;16707;48.106;11.548;2023-04-01T00:54:57;7.40;99.90
29813;DHT22;16707;48.106;11.548;2023-04-01T00:57:32;7.40;99.90
29813;DHT22;16707;48.106;11.548;2023-04-01T01:00:04;7.60;99.90
29813;DHT22;16707;48.106;11.548;2023-04-01T01:02:36;7.60;99.90
29813;DHT22;16707;48.106;11.548;2023-04-01T01:05:10;7.60;99.90
29813;DHT22;16707;48.106;11.548;2023-04-01T01:07:52;7.70;99.90
29813;DHT22;16707;48.106;11.548;2023-04-01T01:10:29;7.80;99.90
29813;DHT22;16707;48.106;11.548;2023-04-01T01:13:08;7.80;99.90
29813;DHT22;16707;48.106;11.548;2023-04-01T01:15:51;7.80;99.90
29813;DHT22;16707;48.106;11.548;2023-04-01T01:18:32;7.90;99.90
29813;DHT22;16707;48.106;11.548;2023-04-01T01:21:30;8.00;99.90
29813;DHT22;16707;48.106;11.548;2023-04-01T01:24:42;8.00;99.90
29813;DHT22;16707;48.106;11.548;2023-04-01T01:27:16;8.00;99.90
29813;DHT22;16707;48.106;11.548;2023-04-01T01:29:58;8.00;99.90
29813;DHT22;16707;48.106;11.548;2023-04-01T01:35:31;8.10;99.90
29813;DHT22;16707;48.106;11.548;2023-04-01T01:38:01;8.10;99.90
29813;DHT22;16707;48.106;11.548;2023-04-01T01:40:31;8.10;99.90
29813;DHT22;16707;48.106;11.548;2023-04-01T01:43:00;8.10;99.90
29813;DHT22;16707;48.106;11.548;2023-04-01T01:45:34;8.00;99.90
29813;DHT22;16707;48.106;11.548;2023-04-01T01:48:03;7.80;99.90
29813;DHT22;16707;48.106;11.548;2023-04-01T01:50:33;7.80;99.90
29813;DHT22;16707;48.106;11.548;2023-04-01T01:53:02;7.80;99.90
29813;DHT22;16707;48.106;11.548;2023-04-01T01:55:33;7.80;99.90
29813;DHT22;16707;48.106;11.548;2023-04-01T01:58:06;7.80;99.90
29813;DHT22;16707;48.106;11.548;2023-04-01T02:00:45;7.90;99.90
29813;DHT22;16707;48.106;11.548;2023-04-01T02:03:14;7.90;99.90
29813;DHT22;16707;48.106;11.548;2023-04-01T02:05:44;7.90;99.90
29813;DHT22;16707;48.106;11.548;2023-04-01T02:08:17;7.90;99.90
29813;DHT22;16707;48.106;11.548;2023-04-01T02:10:53;7.90;99.90
29813;DHT22;16707;48.106;11.548;2023-04-01T02:13:26;7.80;99.90
29813;DHT22;16707;48.106;11.548;2023-04-01T02:16:11;7.90;99.90
29813;DHT22;16707;48.106;11.548;2023-04-01T02:18:44;7.80;99.90
29813;DHT22;16707;48.106;11.548;2023-04-01T02:21:17;7.80;99.90
29813;DHT22;16707;48.106;11.548;2023-04-01T02:23:47;7.90;99.90
29813;DHT22;16707;48.106;11.548;2023-04-01T02:26:23;7.90;99.90
29813;DHT22;16707;48.106;11.548;2023-04-01T02:28:55;7.90;99.90
29813;DHT22;16707;48.106;11.548;2023-04-01T02:31:23;7.90;99.90
29813;DHT22;16707;48.106;11.548;2023-04-01T02:33:50;7.90;99.90
29813;DHT22;16707;48.106;11.548;2023-04-01T02:36:19;7.90;99.90
29813;DHT22;16707;48.106;11.548;2023-04-01T02:38:46;8.00;99.80
29813;DHT22;16707;48.106;11.548;2023-04-01T02:41:14;7.90;99.80
29813;DHT22;16707;48.106;11.548;2023-04-01T02:43:41;7.90;99.80
29813;DHT22;16707;48.106;11.548;2023-04-01T02:46:09;7.90;99.90
29813;DHT22;16707;48.106;11.548;2023-04-01T02:48:37;7.90;99.80
29813;DHT22;16707;48.106;11.548;2023-04-01T02:51:04;7.80;99.90
29813;DHT22;16707;48.106;11.548;2023-04-01T02:53:39;7.80;99.90
29813;DHT22;16707;48.106;11.548;2023-04-01T02:56:07;7.80;99.90
29813;DHT22;16707;48.106;11.548;2023-04-01T02:58:34;7.80;99.90
29813;DHT22;16707;48.106;11.548;2023-04-01T03:01:01;7.80;99.90
29813;DHT22;16707;48.106;11.548;2023-04-01T03:03:28;7.90;99.90
29813;DHT22;16707;48.106;11.548;2023-04-01T03:05:55;7.90;99.90
29813;DHT22;16707;48.106;11.548;2023-04-01T03:08:27;7.80;99.90
29813;DHT22;16707;48.106;11.548;2023-04-01T03:10:56;7.80;99.90
29813;DHT22;16707;48.106;11.548;2023-04-01T03:13:23;7.70;99.90
29813;DHT22;16707;48.106;11.548;2023-04-01T03:15:52;7.70;99.90
29813;DHT22;16707;48.106;11.548;2023-04-01T03:18:28;7.70;99.90
29813;DHT22;16707;48.106;11.548;2023-04-01T03:20:55;7.80;99.90
29813;DHT22;16707;48.106;11.548;2023-04-01T03:23:22;7.70;99.90
29813;DHT22;16707;48.106;11.548;2023-04-01T03:25:50;7.70;99.90
29813;DHT22;16707;48.106;11.548;2023-04-01T03:28:18;7.70;99.90
29813;DHT22;16707;48.106;11.548;2023-04-01T03:30:45;7.70;99.90
29813;DHT22;16707;48.106;11.548;2023-04-01T03:33:12;7.50;99.90
29813;DHT22;16707;48.106;11.548;2023-04-01T03:35:41;7.40;99.90
29813;DHT22;16707;48.106;11.548;2023-04-01T03:38:11;7.40;99.90
29813;DHT22;16707;48.106;11.548;2023-04-01T03:40:42;7.30;99.90
29813;DHT22;16707;48.106;11.548;2023-04-01T03:43:13;7.30;99.90
29813;DHT22;16707;48.106;11.548;2023-04-01T03:45:45;7.20;99.90
29813;DHT22;16707;48.106;11.548;2023-04-01T03:48:12;7.20;99.90
29813;DHT22;16707;48.106;11.548;2023-04-01T03:50:40;7.30;99.90
29813;DHT22;16707;48.106;11.548;2023-04-01T03:53:20;7.40;99.90
29813;DHT22;16707;48.106;11.548;2023-04-01T03:55:47;7.40;99.90
29813;DHT22;16707;48.106;11.548;2023-04-01T03:58:14;7.30;99.90
29813;DHT22;16707;48.106;11.548;2023-04-01T04:00:48;7.30;99.90
29813;DHT22;16707;48.106;11.548;2023-04-01T04:03:15;7.30;99.90
29813;DHT22;16707;48.106;11.548;2023-04-01T04:05:49;7.20;99.90
29813;DHT22;16707;48.106;11.548;2023-04-01T04:08:16;7.20;99.90
29813;DHT22;16707;48.106;11.548;2023-04-01T04:10:44;7.10;99.90
29813;DHT22;16707;48.106;11.548;2023-04-01T04:13:11;7.00;99.90
29813;DHT22;16707;48.106;11.548;2023-04-01T04:15:42;7.10;99.90
29813;DHT22;16707;48.106;11.548;2023-04-01T04:18:10;7.00;99.90
29813;DHT22;16707;48.106;11.548;2023-04-01T04:20:43;7.00;99.90
29813;DHT22;16707;48.106;11.548;2023-04-01T04:23:15;7.10;99.90
29813;DHT22;16707;48.106;11.548;2023-04-01T04:25:56;7.30;99.90
29813;DHT22;16707;48.106;11.548;2023-04-01T04:28:25;7.30;99.90
29813;DHT22;16707;48.106;11.548;2023-04-01T04:30:52;7.40;99.90
29813;DHT22;16707;48.106;11.548;2023-04-01T04:33:20;7.50;99.90
29813;DHT22;16707;48.106;11.548;2023-04-01T04:35:48;7.50;99.90
29813;DHT22;16707;48.106;11.548;2023-04-01T04:38:18;7.50;99.90
29813;DHT22;16707;48.106;11.548;2023-04-01T04:40:45;7.40;99.90
29813;DHT22;16707;48.106;11.548;2023-04-01T04:43:20;7.30;99.90
29813;DHT22;16707;48.106;11.548;2023-04-01T04:45:47;7.30;99.90
29813;DHT22;16707;48.106;11.548;2023-04-01T04:48:16;7.30;99.90
29813;DHT22;16707;48.106;11.548;2023-04-01T04:50:46;7.30;99.90
29813;DHT22;16707;48.106;11.548;2023-04-01T04:53:19;7.40;99.90
29813;DHT22;16707;48.106;11.548;2023-04-01T04:55:49;7.40;99.90
29813;DHT22;16707;48.106;11.548;2023-04-01T04:58:29;7.50;99.90
29813;DHT22;16707;48.106;11.548;2023-04-01T05:00:59;7.50;99.90
29813;DHT22;16707;48.106;11.548;2023-04-01T05:03:26;7.60;99.90
29813;DHT22;16707;48.106;11.548;2023-04-01T05:05:55;7.60;99.90
29813;DHT22;16707;48.106;11.548;2023-04-01T05:08:23;7.70;99.90
29813;DHT22;16707;48.106;11.548;2023-04-01T05:10:50;7.80;99.90
29813;DHT22;16707;48.106;11.548;2023-04-01T05:13:18;7.90;99.90
29813;DHT22;16707;48.106;11.548;2023-04-01T05:15:54;7.90;99.90
29813;DHT22;16707;48.106;11.548;2023-04-01T05:18:24;8.00;99.70
29813;DHT22;16707;48.106;11.548;2023-04-01T05:20:52;8.10;99.50
29813;DHT22;16707;48.106;11.548;2023-04-01T05:23:22;8.10;99.50
29813;DHT22;16707;48.106;11.548;2023-04-01T05:25:50;8.10;99.30
29813;DHT22;16707;48.106;11.548;2023-04-01T05:28:18;8.20;98.70
29813;DHT22;16707;48.106;11.548;2023-04-01T05:30:46;8.20;98.50
29813;DHT22;16707;48.106;11.548;2023-04-01T05:33:13;8.30;98.30
29813;DHT22;16707;48.106;11.548;2023-04-01T05:35:43;8.40;97.50
29813;DHT22;16707;48.106;11.548;2023-04-01T05:38:10;8.50;97.40
29813;DHT22;16707;48.106;11.548;2023-04-01T05:40:38;8.70;96.60
29813;DHT22;16707;48.106;11.548;2023-04-01T05:43:05;9.80;94.90
29813;DHT22;16707;48.106;11.548;2023-04-01T05:45:34;10.70;91.50
29813;DHT22;16707;48.106;11.548;2023-04-01T05:48:02;11.50;87.70
29813;DHT22;16707;48.106;11.548;2023-04-01T05:50:36;12.30;83.20
29813;DHT22;16707;48.106;11.548;2023-04-01T05:53:03;13.20;79.70
29813;DHT22;16707;48.106;11.548;2023-04-01T05:55:34;14.20;74.10
29813;DHT22;16707;48.106;11.548;2023-04-01T05:58:06;13.70;73.50
29813;DHT22;16707;48.106;11.548;2023-04-01T06:00:33;14.00;72.60
29813;DHT22;16707;48.106;11.548;2023-04-01T06:03:03;14.60;70.00
29813;DHT22;16707;48.106;11.548;2023-04-01T06:05:43;15.10;67.30
29813;DHT22;16707;48.106;11.548;2023-04-01T06:08:21;15.50;64.80
29813;DHT22;16707;48.106;11.548;2023-04-01T06:11:11;13.40;68.60
29813;DHT22;16707;48.106;11.548;2023-04-01T06:13:52;12.10;76.00
29813;DHT22;16707;48.106;11.548;2023-04-01T06:16:31;12.00;89.80
29813;DHT22;16707;48.106;11.548;2023-04-01T06:22:17;15.00;86.80
29813;DHT22;16707;48.106;11.548;2023-04-01T06:25:00;15.80;76.60
29813;DHT22;16707;48.106;11.548;2023-04-01T06:27:45;16.00;68.00
29813;DHT22;16707;48.106;11.548;2023-04-01T06:30:30;15.50;70.60
29813;DHT22;16707;48.106;11.548;2023-04-01T06:33:19;14.70;66.50
29813;DHT22;16707;48.106;11.548;2023-04-01T06:36:05;13.90;75.00
29813;DHT22;16707;48.106;11.548;2023-04-01T06:38:49;12.50;72.00
29813;DHT22;16707;48.106;11.548;2023-04-01T06:41:43;11.30;77.40
29813;DHT22;16707;48.106;11.548;2023-04-01T06:44:16;10.80;79.90
29813;DHT22;16707;48.106;11.548;2023-04-01T06:46:47;10.80;81.50
29813;DHT22;16707;48.106;11.548;2023-04-01T06:49:39;10.70;81.20
29813;DHT22;16707;48.106;11.548;2023-04-01T06:52:19;10.50;83.10
29813;DHT22;16707;48.106;11.548;2023-04-01T06:54:52;10.40;83.50
29813;DHT22;16707;48.106;11.548;2023-04-01T06:57:28;10.30;84.00
29813;DHT22;16707;48.106;11.548;2023-04-01T06:59:57;10.30;84.80
29813;DHT22;16707;48.106;11.548;2023-04-01T07:02:32;10.50;83.70
29813;DHT22;16707;48.106;11.548;2023-04-01T07:05:06;10.90;82.10
29813;DHT22;16707;48.106;11.548;2023-04-01T07:07:36;11.00;80.80
29813;DHT22;16707;48.106;11.548;2023-04-01T07:10:16;11.00;80.30
29813;DHT22;16707;48.106;11.548;2023-04-01T07:12:47;10.80;81.20
29813;DHT22;16707;48.106;11.548;2023-04-01T07:15:20;10.60;81.60
29813;DHT22;16707;48.106;11.548;2023-04-01T07:17:54;10.60;81.00
29813;DHT22;16707;48.106;11.548;2023-04-01T07:20:26;10.80;81.40
29813;DHT22;16707;48.106;11.548;2023-04-01T07:22:58;10.80;81.10
29813;DHT22;16707;48.106;11.548;2023-04-01T07:25:28;10.80;81.10
29813;DHT22;16707;48.106;11.548;2023-04-01T07:28:00;10.90;81.30
29813;DHT22;16707;48.106;11.548;2023-04-01T07:30:46;10.80;80.60
29813;DHT22;16707;48.106;11.548;2023-04-01T07:33:20;10.70;81.70
29813;DHT22;16707;48.106;11.548;2023-04-01T07:35:55;10.60;81.20
29813;DHT22;16707;48.106;11.548;2023-04-01T07:38:35;10.50;81.90
29813;DHT22;16707;48.106;11.548;2023-04-01T07:41:09;10.50;83.10
29813;DHT22;16707;48.106;11.548;2023-04-01T07:43:55;10.50;82.80
29813;DHT22;16707;48.106;11.548;2023-04-01T07:46:40;10.70;82.20
29813;DHT22;16707;48.106;11.548;2023-04-01T07:49:16;11.00;81.50
29813;DHT22;16707;48.106;11.548;2023-04-01T07:51:50;11.40;80.60
29813;DHT22;16707;48.106;11.548;2023-04-01T07:54:24;11.60;79.50
29813;DHT22;16707;48.106;11.548;2023-04-01T07:57:02;12.00;78.00
29813;DHT22;16707;48.106;11.548;2023-04-01T07:59:38;12.10;76.80
29813;DHT22;16707;48.106;11.548;2023-04-01T08:02:20;12.10;76.30
29813;DHT22;16707;48.106;11.548;2023-04-01T08:05:09;12.00;76.50
29813;DHT22;16707;48.106;11.548;2023-04-01T08:07:50;11.60;77.20
29813;DHT22;16707;48.106;11.548;2023-04-01T08:10:24;11.70;77.10
29813;DHT22;16707;48.106;11.548;2023-04-01T08:13:03;11.60;77.20
29813;DHT22;16707;48.106;11.548;2023-04-01T08:15:39;11.90;77.40
29813;DHT22;16707;48.106;11.548;2023-04-01T08:18:14;12.00;76.00
29813;DHT22;16707;48.106;11.548;2023-04-01T08:20:49;12.10;75.20
29813;DHT22;16707;48.106;11.548;2023-04-01T08:23:22;12.00;75.20
29813;DHT22;16707;48.106;11.548;2023-04-01T08:25:52;12.20;74.60
29813;DHT22;16707;48.106;11.548;2023-04-01T08:28:32;12.20;74.30
29813;DHT22;16707;48.106;11.548;2023-04-01T08:31:04;12.30;74.80
29813;DHT22;16707;48.106;11.548;2023-04-01T08:33:33;12.10;73.90
29813;DHT22;16707;48.106;11.548;2023-04-01T08:36:09;12.00;75.10
29813;DHT22;16707;48.106;11.548;2023-04-01T08:38:41;12.40;74.60
29813;DHT22;16707;48.106;11.548;2023-04-01T08:41:22;12.60;73.00
29813;DHT22;16707;48.106;11.548;2023-04-01T08:44:33;12.90;72.10
29813;DHT22;16707;48.106;11.548;2023-04-01T08:47:33;12.90;71.90
29813;DHT22;16707;48.106;11.548;2023-04-01T08:53:43;13.00;70.80
29813;DHT22;16707;48.106;11.548;2023-04-01T08:56:17;13.10;69.40
29813;DHT22;16707;48.106;11.548;2023-04-01T08:58:59;12.90;69.80
29813;DHT22;16707;48.106;11.548;2023-04-01T09:05:17;13.10;70.20
29813;DHT22;16707;48.106;11.548;2023-04-01T09:08:00;13.50;69.40
29813;DHT22;16707;48.106;11.548;2023-04-01T09:10:59;13.40;69.40
29813;DHT22;16707;48.106;11.548;2023-04-01T09:13:49;13.70;67.50
29813;DHT22;16707;48.106;11.548;2023-04-01T09:16:28;13.30;67.50
29813;DHT22;16707;48.106;11.548;2023-04-01T09:19:30;13.50;67.90
29813;DHT22;16707;48.106;11.548;2023-04-01T09:22:31;13.70;68.20
29813;DHT22;16707;48.106;11.548;2023-04-01T09:25:26;14.20;65.70
29813;DHT22;16707;48.106;11.548;2023-04-01T09:28:07;14.70;64.00
29813;DHT22;16707;48.106;11.548;2023-04-01T09:31:02;14.20;63.00
29813;DHT22;16707;48.106;11.548;2023-04-01T09:33:58;13.90;65.10
29813;DHT22;16707;48.106;11.548;2023-04-01T09:37:15;14.00;64.90
29813;DHT22;16707;48.106;11.548;2023-04-01T09:40:02;14.00;63.80
29813;DHT22;16707;48.106;11.548;2023-04-01T09:42:45;13.90;64.30
29813;DHT22;16707;48.106;11.548;2023-04-01T09:45:42;14.00;63.00
29813;DHT22;16707;48.106;11.548;2023-04-01T09:48:24;14.20;63.90
29813;DHT22;16707;48.106;11.548;2023-04-01T09:51:09;14.60;62.60
29813;DHT22;16707;48.106;11.548;2023-04-01T09:54:00;14.60;62.20
29813;DHT22;16707;48.106;11.548;2023-04-01T09:56:58;14.30;62.40
29813;DHT22;16707;48.106;11.548;2023-04-01T10:03:31;14.50;61.80
29813;DHT22;16707;48.106;11.548;2023-04-01T10:06:34;14.70;62.00
29813;DHT22;16707;48.106;11.548;2023-04-01T10:09:28;14.60;60.80
29813;DHT22;16707;48.106;11.548;2023-04-01T10:12:24;14.40;61.20
29813;DHT22;16707;48.106;11.548;2023-04-01T10:15:39;14.20;61.90
29813;DHT22;16707;48.106;11.548;2023-04-01T10:25:23;13.60;64.20
29813;DHT22;16707;48.106;11.548;2023-04-01T10:28:18;13.70;64.20
29813;DHT22;16707;48.106;11.548;2023-04-01T10:31:02;14.10;63.80
29813;DHT22;16707;48.106;11.548;2023-04-01T10:33:53;14.10;62.40
29813;DHT22;16707;48.106;11.548;2023-04-01T10:36:52;14.20;63.20
29813;DHT22;16707;48.106;11.548;2023-04-01T10:39:40;14.30;61.60
29813;DHT22;16707;48.106;11.548;2023-04-01T10:56:31;13.70;66.40
29813;DHT22;16707;48.106;11.548;2023-04-01T11:02:45;13.80;65.40
29813;DHT22;16707;48.106;11.548;2023-04-01T11:09:42;13.70;68.30
29813;DHT22;16707;48.106;11.548;2023-04-01T11:12:35;13.70;71.30
29813;DHT22;16707;48.106;11.548;2023-04-01T11:15:47;13.50;71.70
29813;DHT22;16707;48.106;11.548;2023-04-01T11:18:47;13.00;73.60
29813;DHT22;16707;48.106;11.548;2023-04-01T11:21:54;13.00;74.00
29813;DHT22;16707;48.106;11.548;2023-04-01T11:24:42;13.00;75.70
29813;DHT22;16707;48.106;11.548;2023-04-01T11:27:25;13.20;75.80
29813;DHT22;16707;48.106;11.548;2023-04-01T11:30:14;13.00;73.50
29813;DHT22;16707;48.106;11.548;2023-04-01T11:32:53;12.70;74.50
29813;DHT22;16707;48.106;11.548;2023-04-01T11:35:49;12.70;75.70
29813;DHT22;16707;48.106;11.548;2023-04-01T11:38:31;12.80;76.60
29813;DHT22;16707;48.106;11.548;2023-04-01T11:41:13;12.60;76.00
29813;DHT22;16707;48.106;11.548;2023-04-01T11:50:21;12.30;77.70
29813;DHT22;16707;48.106;11.548;2023-04-01T11:53:18;12.30;79.90
29813;DHT22;16707;48.106;11.548;2023-04-01T11:55:59;12.00;83.60
29813;DHT22;16707;48.106;11.548;2023-04-01T12:01:36;11.50;91.30
29813;DHT22;16707;48.106;11.548;2023-04-01T12:07:26;11.20;91.80
29813;DHT22;16707;48.106;11.548;2023-04-01T12:10:01;10.90;92.40
29813;DHT22;16707;48.106;11.548;2023-04-01T12:12:35;10.90;92.40
29813;DHT22;16707;48.106;11.548;2023-04-01T12:15:21;10.90;93.40
29813;DHT22;16707;48.106;11.548;2023-04-01T12:17:56;11.00;92.60
29813;DHT22;16707;48.106;11.548;2023-04-01T12:20:39;10.90;92.50
29813;DHT22;16707;48.106;11.548;2023-04-01T12:23:28;11.00;92.70
29813;DHT22;16707;48.106;11.548;2023-04-01T12:26:17;11.00;92.60
29813;DHT22;16707;48.106;11.548;2023-04-01T12:29:06;10.90;92.20
29813;DHT22;16707;48.106;11.548;2023-04-01T12:31:46;10.90;93.30
29813;DHT22;16707;48.106;11.548;2023-04-01T12:34:36;11.00;93.30
29813;DHT22;16707;48.106;11.548;2023-04-01T12:37:12;10.80;92.40
29813;DHT22;16707;48.106;11.548;2023-04-01T12:40:05;10.70;92.70
29813;DHT22;16707;48.106;11.548;2023-04-01T12:42:57;10.60;93.10
29813;DHT22;16707;48.106;11.548;2023-04-01T12:45:31;10.60;94.00
29813;DHT22;16707;48.106;11.548;2023-04-01T12:48:27;10.60;94.10
29813;DHT22;16707;48.106;11.548;2023-04-01T12:51:41;10.60;93.60
29813;DHT22;16707;48.106;11.548;2023-04-01T12:54:50;10.60;93.50
29813;DHT22;16707;48.106;11.548;2023-04-01T12:57:49;10.70;93.20
29813;DHT22;16707;48.106;11.548;2023-04-01T13:00:56;10.40;94.40
29813;DHT22;16707;48.106;11.548;2023-04-01T13:03:47;10.20;93.80
29813;DHT22;16707;48.106;11.548;2023-04-01T13:06:29;10.20;94.30
29813;DHT22;16707;48.106;11.548;2023-04-01T13:09:10;10.10;94.20
29813;DHT22;16707;48.106;11.548;2023-04-01T13:11:52;10.30;95.10
29813;DHT22;16707;48.106;11.548;2023-04-01T13:14:59;10.10;94.20
29813;DHT22;16707;48.106;11.548;2023-04-01T13:17:34;10.00;94.90
29813;DHT22;16707;48.106;11.548;2023-04-01T13:20:23;10.10;94.60
29813;DHT22;16707;48.106;11.548;2023-04-01T13:23:00;10.10;94.70
29813;DHT22;16707;48.106;11.548;2023-04-01T13:25:38;9.90;94.90
29813;DHT22;16707;48.106;11.548;2023-04-01T13:28:16;9.90;95.20
29813;DHT22;16707;48.106;11.548;2023-04-01T13:30:48;9.90;95.00
29813;DHT22;16707;48.106;11.548;2023-04-01T13:33:25;10.00;95.90
29813;DHT22;16707;48.106;11.548;2023-04-01T13:36:11;9.90;96.30
29813;DHT22;16707;48.106;11.548;2023-04-01T13:39:20;10.00;96.90
29813;DHT22;16707;48.106;11.548;2023-04-01T13:42:05;9.90;96.50
29813;DHT22;16707;48.106;11.548;2023-04-01T13:44:35;9.80;97.30
29813;DHT22;16707;48.106;11.548;2023-04-01T13:47:18;9.80;97.80
29813;DHT22;16707;48.106;11.548;2023-04-01T13:50:25;9.90;97.60
29813;DHT22;16707;48.106;11.548;2023-04-01T13:53:21;10.10;96.90
29813;DHT22;16707;48.106;11.548;2023-04-01T13:56:11;10.20;96.50
29813;DHT22;16707;48.106;11.548;2023-04-01T13:59:07;10.20;96.70
29813;DHT22;16707;48.106;11.548;2023-04-01T14:01:48;10.30;96.20
29813;DHT22;16707;48.106;11.548;2023-04-01T14:04:39;10.40;96.40
29813;DHT22;16707;48.106;11.548;2023-04-01T14:07:18;10.50;96.50
29813;DHT22;16707;48.106;11.548;2023-04-01T14:10:07;10.60;96.30
29813;DHT22;16707;48.106;11.548;2023-04-01T14:12:40;10.60;96.10
29813;DHT22;16707;48.106;11.548;2023-04-01T14:15:29;10.50;96.70
29813;DHT22;16707;48.106;11.548;2023-04-01T14:18:19;10.70;96.40
29813;DHT22;16707;48.106;11.548;2023-04-01T14:21:07;10.40;96.50
29813;DHT22;16707;48.106;11.548;2023-04-01T14:23:55;10.40;96.60
29813;DHT22;16707;48.106;11.548;2023-04-01T14:26:41;10.60;96.80
29813;DHT22;16707;48.106;11.548;2023-04-01T14:29:21;10.60;95.80
29813;DHT22;16707;48.106;11.548;2023-04-01T14:32:11;10.60;95.60
29813;DHT22;16707;48.106;11.548;2023-04-01T14:34:56;10.60;95.80
29813;DHT22;16707;48.106;11.548;2023-04-01T14:38:02;10.60;96.10
29813;DHT22;16707;48.106;11.548;2023-04-01T14:40:44;10.60;96.70
29813;DHT22;16707;48.106;11.548;2023-04-01T14:49:35;10.80;95.40
29813;DHT22;16707;48.106;11.548;2023-04-01T14:52:13;10.70;96.80
29813;DHT22;16707;48.106;11.548;2023-04-01T14:54:44;10.70;97.50
29813;DHT22;16707;48.106;11.548;2023-04-01T14:57:16;10.60;96.80
29813;DHT22;16707;48.106;11.548;2023-04-01T14:59:51;10.70;98.00
29813;DHT22;16707;48.106;11.548;2023-04-01T15:02:44;10.70;98.30
29813;DHT22;16707;48.106;11.548;2023-04-01T15:05:20;10.80;96.80
29813;DHT22;16707;48.106;11.548;2023-04-01T15:08:08;10.70;96.30
29813;DHT22;16707;48.106;11.548;2023-04-01T15:10:59;10.60;96.00
29813;DHT22;16707;48.106;11.548;2023-04-01T15:13:46;10.40;95.30
29813;DHT22;16707;48.106;11.548;2023-04-01T15:16:21;10.30;95.20
29813;DHT22;16707;48.106;11.548;2023-04-01T15:18:53;10.20;95.30
29813;DHT22;16707;48.106;11.548;2023-04-01T15:21:45;10.30;95.30
29813;DHT22;16707;48.106;11.548;2023-04-01T15:24:21;10.30;95.80
29813;DHT22;16707;48.106;11.548;2023-04-01T15:27:01;10.40;94.80
29813;DHT22;16707;48.106;11.548;2023-04-01T15:29:51;10.60;94.90
29813;DHT22;16707;48.106;11.548;2023-04-01T15:32:31;10.70;94.30
29813;DHT22;16707;48.106;11.548;2023-04-01T15:35:24;10.80;93.40
29813;DHT22;16707;48.106;11.548;2023-04-01T15:38:05;10.80;92.30
29813;DHT22;16707;48.106;11.548;2023-04-01T15:40:41;10.90;93.40
29813;DHT22;16707;48.106;11.548;2023-04-01T15:43:26;11.10;92.60
29813;DHT22;16707;48.106;11.548;2023-04-01T15:45:58;10.90;92.40
29813;DHT22;16707;48.106;11.548;2023-04-01T15:48:50;10.90;92.20
29813;DHT22;16707;48.106;11.548;2023-04-01T15:51:54;11.00;92.80
29813;DHT22;16707;48.106;11.548;2023-04-01T15:57:42;10.90;91.30
29813;DHT22;16707;48.106;11.548;2023-04-01T16:00:25;10.90;91.50
29813;DHT22;16707;48.106;11.548;2023-04-01T16:03:17;10.90;90.80
29813;DHT22;16707;48.106;11.548;2023-04-01T16:08:57;11.00;90.10
29813;DHT22;16707;48.106;11.548;2023-04-01T16:11:48;11.00;89.30
29813;DHT22;16707;48.106;11.548;2023-04-01T16:14:29;11.00;89.60
29813;DHT22;16707;48.106;11.548;2023-04-01T16:17:14;11.00;89.00
29813;DHT22;16707;48.106;11.548;2023-04-01T16:20:13;11.00;89.60
29813;DHT22;16707;48.106;11.548;2023-04-01T16:22:51;10.80;90.00
29813;DHT22;16707;48.106;11.548;2023-04-01T16:25:31;10.80;88.70
29813;DHT22;16707;48.106;11.548;2023-04-01T16:28:19;10.80;89.00
29813;DHT22;16707;48.106;11.548;2023-04-01T16:30:57;10.70;89.40
29813;DHT22;16707;48.106;11.548;2023-04-01T16:33:37;10.70;89.20
29813;DHT22;16707;48.106;11.548;2023-04-01T16:36:13;10.70;90.30
29813;DHT22;16707;48.106;11.548;2023-04-01T16:38:50;10.60;89.70
29813;DHT22;16707;48.106;11.548;2023-04-01T16:41:24;10.50;89.60
29813;DHT22;16707;48.106;11.548;2023-04-01T16:43:55;10.30;90.40
29813;DHT22;16707;48.106;11.548;2023-04-01T16:46:32;10.30;90.10
29813;DHT22;16707;48.106;11.548;2023-04-01T16:49:25;10.30;90.50
29813;DHT22;16707;48.106;11.548;2023-04-01T16:52:15;10.20;90.60
29813;DHT22;16707;48.106;11.548;2023-04-01T16:54:50;10.30;90.10
29813;DHT22;16707;48.106;11.548;2023-04-01T16:57:35;10.20;90.00
29813;DHT22;16707;48.106;11.548;2023-04-01T17:00:21;10.20;89.10
29813;DHT22;16707;48.106;11.548;2023-04-01T17:02:58;10.20;88.30
29813;DHT22;16707;48.106;11.548;2023-04-01T17:05:40;10.10;88.20
29813;DHT22;16707;48.106;11.548;2023-04-01T17:08:29;10.10;88.30
29813;DHT22;16707;48.106;11.548;2023-04-01T17:11:09;10.10;88.20
29813;DHT22;16707;48.106;11.548;2023-04-01T17:13:51;10.10;88.80
29813;DHT22;16707;48.106;11.548;2023-04-01T17:16:48;10.10;89.00
29813;DHT22;16707;48.106;11.548;2023-04-01T17:19:32;10.10;89.70
29813;DHT22;16707;48.106;11.548;2023-04-01T17:22:11;10.00;90.40
29813;DHT22;16707;48.106;11.548;2023-04-01T17:24:55;10.80;92.90
29813;DHT22;16707;48.106;11.548;2023-04-01T17:27:36;10.90;91.60
29813;DHT22;16707;48.106;11.548;2023-04-01T17:33:27;11.20;84.50
29813;DHT22;16707;48.106;11.548;2023-04-01T17:36:04;10.60;85.80
29813;DHT22;16707;48.106;11.548;2023-04-01T17:41:54;10.30;87.00
29813;DHT22;16707;48.106;11.548;2023-04-01T17:44:34;10.10;87.80
29813;DHT22;16707;48.106;11.548;2023-04-01T17:47:31;10.00;88.80
29813;DHT22;16707;48.106;11.548;2023-04-01T17:50:18;10.00;88.50
29813;DHT22;16707;48.106;11.548;2023-04-01T17:53:01;9.80;89.30
29813;DHT22;16707;48.106;11.548;2023-04-01T17:55:46;9.80;90.30